Élőkép

Információk

Albatrosz Repülő Egyesület
8000 Székesfehérvár,
Radványi utca 6.

Adószám:
19092908-2-07

Bankszámla szám:
Budapest Bank
10102952-01361819-00000001

Telefon: +36 30 9598-897

Telephey: Börgönd repülőtér

Börgöndi repülõtér

LHBP METAR/TAF

[source: ADDS]
METAR
TAF LHBP 241100Z 2412/2512 02006KT 7000 -RA SCT010 OVC020 TEMPO 2412/2415 2500 RA BR BKN005 OVC015 BECMG 2415/2418 08004KT 4000 BR BKN010 OVC025 BECMG 2509/2512 14004KT 9999 NSW SCT020 TAF
TAF LHBP 241100Z 2412/2512 02006KT 7000 -RA SCT010 OVC020 TEMPO 2412/2415 2500 RA BR BKN005 OVC015 BECMG 2415/2418 08004KT 4000 BR BKN010 OVC025 BECMG 2509/2512 14004KT 9999 NSW SCT020 =
SR / SS: 05:19 / 15:44 UTC (Börgönd 2014-10-24)
Hungarian Chinese (Simplified) Croatian Czech English Finnish French German Hebrew Italian Japanese Polish Portuguese Romanian Russian Serbian Slovak Slovenian Spanish

Belépés tagoknak